sensor_id;sensor_type;location;lat;lon;timestamp;pressure;altitude;pressure_sealevel;temperature;humidity
22830;BME280;11581;51.250;6.778;2023-05-03T00:01:31;102328.16;;;9.51;46.67
22830;BME280;11581;51.250;6.778;2023-05-03T00:03:58;102361.38;;;9.85;46.82
22830;BME280;11581;51.250;6.778;2023-05-03T00:06:24;102288.81;;;9.42;46.65
22830;BME280;11581;51.250;6.778;2023-05-03T00:08:51;102119.50;;;8.36;46.67
22830;BME280;11581;51.250;6.778;2023-05-03T00:11:18;102332.00;;;9.60;47.20
22830;BME280;11581;51.250;6.778;2023-05-03T00:13:45;102342.56;;;9.61;47.35
22830;BME280;11581;51.250;6.778;2023-05-03T00:16:11;102365.16;;;9.68;47.68
22830;BME280;11581;51.250;6.778;2023-05-03T00:18:38;102322.41;;;9.45;47.69
22830;BME280;11581;51.250;6.778;2023-05-03T00:21:04;102360.28;;;9.62;47.74
22830;BME280;11581;51.250;6.778;2023-05-03T00:23:31;102355.56;;;9.53;48.18
22830;BME280;11581;51.250;6.778;2023-05-03T00:25:58;102346.19;;;9.48;47.91
22830;BME280;11581;51.250;6.778;2023-05-03T00:28:25;102368.97;;;9.52;48.52
22830;BME280;11581;51.250;6.778;2023-05-03T00:30:52;102368.31;;;9.48;48.54
22830;BME280;11581;51.250;6.778;2023-05-03T00:33:20;102343.13;;;9.27;48.79
22830;BME280;11581;51.250;6.778;2023-05-03T00:35:47;102372.34;;;9.41;48.63
22830;BME280;11581;51.250;6.778;2023-05-03T00:38:13;102368.19;;;9.37;49.07
22830;BME280;11581;51.250;6.778;2023-05-03T00:40:40;102319.81;;;9.04;49.29
22830;BME280;11581;51.250;6.778;2023-05-03T00:43:10;102279.69;;;8.80;50.04
22830;BME280;11581;51.250;6.778;2023-05-03T00:45:37;102368.78;;;9.28;49.43
22830;BME280;11581;51.250;6.778;2023-05-03T00:48:03;102367.28;;;9.24;49.59
22830;BME280;11581;51.250;6.778;2023-05-03T00:50:30;102355.53;;;9.14;49.62
22830;BME280;11581;51.250;6.778;2023-05-03T00:52:56;102363.22;;;9.19;49.59
22830;BME280;11581;51.250;6.778;2023-05-03T00:55:23;102336.28;;;8.96;49.68
22830;BME280;11581;51.250;6.778;2023-05-03T00:57:50;102369.97;;;9.10;49.74
22830;BME280;11581;51.250;6.778;2023-05-03T01:00:17;102367.25;;;8.97;50.02
22830;BME280;11581;51.250;6.778;2023-05-03T01:02:44;102261.63;;;8.45;50.17
22830;BME280;11581;51.250;6.778;2023-05-03T01:05:11;102311.53;;;8.68;50.43
22830;BME280;11581;51.250;6.778;2023-05-03T01:11:06;102373.63;;;8.95;51.92
22830;BME280;11581;51.250;6.778;2023-05-03T01:13:41;102369.38;;;8.92;51.52
22830;BME280;11581;51.250;6.778;2023-05-03T01:17:10;102366.03;;;8.89;50.24
22830;BME280;11581;51.250;6.778;2023-05-03T01:19:14;102266.59;;;8.23;52.11
22830;BME280;11581;51.250;6.778;2023-05-03T01:21:50;102370.97;;;8.81;51.74
22830;BME280;11581;51.250;6.778;2023-05-03T01:24:24;102373.88;;;8.78;51.32
22830;BME280;11581;51.250;6.778;2023-05-03T01:26:51;102307.97;;;8.41;50.74
22830;BME280;11581;51.250;6.778;2023-05-03T01:29:18;102331.97;;;8.53;50.95
22830;BME280;11581;51.250;6.778;2023-05-03T01:31:58;102370.06;;;8.68;52.74
22830;BME280;11581;51.250;6.778;2023-05-03T01:37:13;102372.16;;;8.63;51.17
22830;BME280;11581;51.250;6.778;2023-05-03T01:40:03;102379.56;;;8.58;53.40
22830;BME280;11581;51.250;6.778;2023-05-03T01:42:34;102384.25;;;8.54;51.69
22830;BME280;11581;51.250;6.778;2023-05-03T01:45:02;102376.53;;;8.50;51.40
22830;BME280;11581;51.250;6.778;2023-05-03T01:47:29;102372.28;;;8.47;51.52
22830;BME280;11581;51.250;6.778;2023-05-03T01:49:56;102297.41;;;7.97;51.57
22830;BME280;11581;51.250;6.778;2023-05-03T01:52:22;102356.69;;;8.27;52.13
22830;BME280;11581;51.250;6.778;2023-05-03T01:54:49;102292.00;;;7.85;51.97
22830;BME280;11581;51.250;6.778;2023-05-03T01:57:15;102369.31;;;8.24;52.26
22830;BME280;11581;51.250;6.778;2023-05-03T01:59:42;102373.69;;;8.25;52.34
22830;BME280;11581;51.250;6.778;2023-05-03T02:02:08;102392.88;;;8.30;52.30
22830;BME280;11581;51.250;6.778;2023-05-03T02:04:35;102363.00;;;8.11;52.25
22830;BME280;11581;51.250;6.778;2023-05-03T02:07:03;102385.28;;;8.24;52.58
22830;BME280;11581;51.250;6.778;2023-05-03T02:09:29;102388.06;;;8.21;52.46
22830;BME280;11581;51.250;6.778;2023-05-03T02:11:56;102364.25;;;8.05;52.87
22830;BME280;11581;51.250;6.778;2023-05-03T02:14:22;102390.16;;;8.16;52.91
22830;BME280;11581;51.250;6.778;2023-05-03T02:16:49;102384.44;;;8.08;53.02
22830;BME280;11581;51.250;6.778;2023-05-03T02:19:16;102398.47;;;8.10;53.21
22830;BME280;11581;51.250;6.778;2023-05-03T02:21:42;102356.59;;;7.85;53.32
22830;BME280;11581;51.250;6.778;2023-05-03T02:24:08;102399.72;;;8.04;53.16
22830;BME280;11581;51.250;6.778;2023-05-03T02:26:35;102405.13;;;8.03;53.57
22830;BME280;11581;51.250;6.778;2023-05-03T02:29:02;102340.50;;;7.59;53.39
22830;BME280;11581;51.250;6.778;2023-05-03T02:31:30;102406.25;;;7.99;53.39
22830;BME280;11581;51.250;6.778;2023-05-03T02:33:58;102403.22;;;7.91;53.41
22830;BME280;11581;51.250;6.778;2023-05-03T02:36:24;102407.47;;;7.93;53.33
22830;BME280;11581;51.250;6.778;2023-05-03T02:38:51;102377.72;;;7.73;53.75
22830;BME280;11581;51.250;6.778;2023-05-03T02:41:18;102386.66;;;7.72;53.85
22830;BME280;11581;51.250;6.778;2023-05-03T02:43:46;102388.53;;;7.70;53.86
22830;BME280;11581;51.250;6.778;2023-05-03T02:46:13;102381.78;;;7.64;53.92
22830;BME280;11581;51.250;6.778;2023-05-03T02:48:39;102408.88;;;7.85;53.72
22830;BME280;11581;51.250;6.778;2023-05-03T02:51:05;102388.78;;;7.65;53.59
22830;BME280;11581;51.250;6.778;2023-05-03T02:53:32;102403.94;;;7.79;54.19
22830;BME280;11581;51.250;6.778;2023-05-03T02:56:01;102411.03;;;7.78;53.85
22830;BME280;11581;51.250;6.778;2023-05-03T02:58:28;102404.13;;;7.76;53.84
22830;BME280;11581;51.250;6.778;2023-05-03T03:00:55;102384.44;;;7.64;54.24
22830;BME280;11581;51.250;6.778;2023-05-03T03:03:23;102335.56;;;7.37;54.24
22830;BME280;11581;51.250;6.778;2023-05-03T03:05:50;102399.06;;;7.71;54.33
22830;BME280;11581;51.250;6.778;2023-05-03T03:08:17;102367.72;;;7.33;54.06
22830;BME280;11581;51.250;6.778;2023-05-03T03:10:43;102391.44;;;7.65;54.53
22830;BME280;11581;51.250;6.778;2023-05-03T03:13:11;102388.88;;;7.64;54.30
22830;BME280;11581;51.250;6.778;2023-05-03T03:15:37;102383.75;;;7.61;54.68
22830;BME280;11581;51.250;6.778;2023-05-03T03:18:04;102160.81;;;6.11;54.70
22830;BME280;11581;51.250;6.778;2023-05-03T03:20:31;102378.78;;;7.55;54.52
22830;BME280;11581;51.250;6.778;2023-05-03T03:22:57;102368.34;;;7.52;54.48
22830;BME280;11581;51.250;6.778;2023-05-03T03:25:25;102367.59;;;7.50;54.50
22830;BME280;11581;51.250;6.778;2023-05-03T03:27:55;102364.16;;;7.48;54.78
22830;BME280;11581;51.250;6.778;2023-05-03T03:30:21;102228.41;;;6.65;54.83
22830;BME280;11581;51.250;6.778;2023-05-03T03:32:59;102287.28;;;7.01;54.94
22830;BME280;11581;51.250;6.778;2023-05-03T03:35:33;102352.97;;;7.43;54.78
22830;BME280;11581;51.250;6.778;2023-05-03T03:37:59;102359.28;;;7.40;55.06
22830;BME280;11581;51.250;6.778;2023-05-03T03:40:26;102325.69;;;7.25;55.26
22830;BME280;11581;51.250;6.778;2023-05-03T03:42:54;102317.41;;;7.16;55.26
22830;BME280;11581;51.250;6.778;2023-05-03T03:45:21;102353.25;;;7.38;55.25
22830;BME280;11581;51.250;6.778;2023-05-03T03:47:48;102355.03;;;7.38;55.30
22830;BME280;11581;51.250;6.778;2023-05-03T03:50:15;102322.53;;;7.19;55.06
22830;BME280;11581;51.250;6.778;2023-05-03T03:52:43;102349.72;;;7.38;55.35
22830;BME280;11581;51.250;6.778;2023-05-03T03:55:10;102346.09;;;7.39;55.46
22830;BME280;11581;51.250;6.778;2023-05-03T03:57:37;102347.84;;;7.40;55.07
22830;BME280;11581;51.250;6.778;2023-05-03T04:00:04;102339.88;;;7.40;55.32
22830;BME280;11581;51.250;6.778;2023-05-03T04:02:37;102327.72;;;7.36;54.98
22830;BME280;11581;51.250;6.778;2023-05-03T04:05:09;102336.28;;;7.41;55.08
22830;BME280;11581;51.250;6.778;2023-05-03T04:07:35;102336.28;;;7.41;55.09
22830;BME280;11581;51.250;6.778;2023-05-03T04:10:02;102330.00;;;7.42;55.29
22830;BME280;11581;51.250;6.778;2023-05-03T04:12:29;102320.16;;;7.44;54.87
22830;BME280;11581;51.250;6.778;2023-05-03T04:14:56;102298.38;;;7.23;55.28
22830;BME280;11581;51.250;6.778;2023-05-03T04:17:22;102320.72;;;7.49;55.30
22830;BME280;11581;51.250;6.778;2023-05-03T04:19:50;102325.88;;;7.52;55.28
22830;BME280;11581;51.250;6.778;2023-05-03T04:22:17;102156.84;;;6.49;54.79
22830;BME280;11581;51.250;6.778;2023-05-03T04:24:43;102335.47;;;7.54;55.09
22830;BME280;11581;51.250;6.778;2023-05-03T04:27:10;102355.22;;;7.64;54.98
22830;BME280;11581;51.250;6.778;2023-05-03T04:29:39;102354.09;;;7.68;54.85
22830;BME280;11581;51.250;6.778;2023-05-03T04:32:06;102329.81;;;7.60;54.92
22830;BME280;11581;51.250;6.778;2023-05-03T04:34:34;102363.31;;;7.77;54.77
22830;BME280;11581;51.250;6.778;2023-05-03T04:37:02;102372.53;;;7.85;55.41
22830;BME280;11581;51.250;6.778;2023-05-03T04:39:30;102371.03;;;7.95;55.96
22830;BME280;11581;51.250;6.778;2023-05-03T04:41:57;102379.13;;;8.08;56.25
22830;BME280;11581;51.250;6.778;2023-05-03T04:44:24;102372.72;;;8.26;56.27
22830;BME280;11581;51.250;6.778;2023-05-03T04:46:51;102369.72;;;8.46;56.56
22830;BME280;11581;51.250;6.778;2023-05-03T04:49:17;102370.72;;;8.71;55.92
22830;BME280;11581;51.250;6.778;2023-05-03T04:51:44;102373.25;;;9.01;56.25
22830;BME280;11581;51.250;6.778;2023-05-03T04:54:11;102369.16;;;9.36;56.06
22830;BME280;11581;51.250;6.778;2023-05-03T04:56:37;102274.31;;;9.21;55.66
22830;BME280;11581;51.250;6.778;2023-05-03T04:59:14;102348.06;;;9.97;55.20
22830;BME280;11581;51.250;6.778;2023-05-03T05:01:41;102206.41;;;9.53;54.36
22830;BME280;11581;51.250;6.778;2023-05-03T05:04:08;102357.69;;;10.98;53.73
22830;BME280;11581;51.250;6.778;2023-05-03T05:06:40;102330.69;;;11.26;52.86
22830;BME280;11581;51.250;6.778;2023-05-03T05:09:25;102371.78;;;12.06;50.28
22830;BME280;11581;51.250;6.778;2023-05-03T05:11:54;102380.47;;;12.53;50.75
22830;BME280;11581;51.250;6.778;2023-05-03T05:14:21;102344.59;;;12.67;49.66
22830;BME280;11581;51.250;6.778;2023-05-03T05:16:48;102382.59;;;13.36;48.99
22830;BME280;11581;51.250;6.778;2023-05-03T05:19:15;102367.59;;;13.77;48.39
22830;BME280;11581;51.250;6.778;2023-05-03T05:21:41;102378.91;;;14.21;47.62
22830;BME280;11581;51.250;6.778;2023-05-03T05:24:08;102344.84;;;14.42;47.10
22830;BME280;11581;51.250;6.778;2023-05-03T05:26:35;102363.47;;;15.04;46.18
22830;BME280;11581;51.250;6.778;2023-05-03T05:29:01;102376.19;;;15.60;45.19
22830;BME280;11581;51.250;6.778;2023-05-03T05:31:28;102367.94;;;16.00;44.28
22830;BME280;11581;51.250;6.778;2023-05-03T05:33:55;102414.28;;;16.69;43.45
22830;BME280;11581;51.250;6.778;2023-05-03T05:36:21;102372.44;;;17.01;42.23
22830;BME280;11581;51.250;6.778;2023-05-03T05:38:49;102396.72;;;17.63;41.69
22830;BME280;11581;51.250;6.778;2023-05-03T05:41:15;102394.63;;;18.10;40.85
22830;BME280;11581;51.250;6.778;2023-05-03T05:43:43;102363.97;;;18.37;40.36
22830;BME280;11581;51.250;6.778;2023-05-03T05:46:11;102398.09;;;19.05;39.46
22830;BME280;11581;51.250;6.778;2023-05-03T05:48:38;102355.59;;;19.31;38.41
22830;BME280;11581;51.250;6.778;2023-05-03T05:51:05;102395.25;;;19.96;37.84
22830;BME280;11581;51.250;6.778;2023-05-03T05:53:32;102208.31;;;19.25;37.33
22830;BME280;11581;51.250;6.778;2023-05-03T05:56:00;102403.28;;;20.84;36.64
22830;BME280;11581;51.250;6.778;2023-05-03T05:58:29;102388.06;;;21.14;35.81
22830;BME280;11581;51.250;6.778;2023-05-03T06:01:00;102366.84;;;21.48;35.25
22830;BME280;11581;51.250;6.778;2023-05-03T06:03:30;102377.41;;;22.11;34.55
22830;BME280;11581;51.250;6.778;2023-05-03T06:05:58;102366.88;;;22.45;33.91
22830;BME280;11581;51.250;6.778;2023-05-03T06:08:25;102407.66;;;23.17;33.21
22830;BME280;11581;51.250;6.778;2023-05-03T06:10:52;102324.34;;;23.16;32.71
22830;BME280;11581;51.250;6.778;2023-05-03T06:13:19;102376.66;;;23.89;32.37
22830;BME280;11581;51.250;6.778;2023-05-03T06:15:46;102391.63;;;24.49;31.79
22830;BME280;11581;51.250;6.778;2023-05-03T06:18:13;102392.41;;;25.04;30.86
22830;BME280;11581;51.250;6.778;2023-05-03T06:20:39;102414.53;;;25.63;30.29
22830;BME280;11581;51.250;6.778;2023-05-03T06:23:06;102413.31;;;25.98;28.67
22830;BME280;11581;51.250;6.778;2023-05-03T06:25:33;102415.25;;;26.37;27.67
22830;BME280;11581;51.250;6.778;2023-05-03T06:28:00;102400.06;;;26.60;27.10
22830;BME280;11581;51.250;6.778;2023-05-03T06:30:30;102403.63;;;26.80;26.79
22830;BME280;11581;51.250;6.778;2023-05-03T06:33:03;102411.59;;;26.88;26.18
22830;BME280;11581;51.250;6.778;2023-05-03T06:35:30;102408.25;;;26.86;25.63
22830;BME280;11581;51.250;6.778;2023-05-03T06:37:57;102402.38;;;26.76;25.53
22830;BME280;11581;51.250;6.778;2023-05-03T06:40:24;102343.28;;;26.30;25.36
22830;BME280;11581;51.250;6.778;2023-05-03T06:42:51;102383.22;;;26.57;25.73
22830;BME280;11581;51.250;6.778;2023-05-03T06:45:24;102408.28;;;26.67;25.44
22830;BME280;11581;51.250;6.778;2023-05-03T06:47:50;102403.44;;;26.62;25.59
22830;BME280;11581;51.250;6.778;2023-05-03T06:50:17;102403.00;;;26.59;25.47
22830;BME280;11581;51.250;6.778;2023-05-03T06:52:45;102385.53;;;26.40;25.00
22830;BME280;11581;51.250;6.778;2023-05-03T06:55:11;102404.50;;;26.48;25.07
22830;BME280;11581;51.250;6.778;2023-05-03T06:57:39;102380.31;;;26.26;24.38
22830;BME280;11581;51.250;6.778;2023-05-03T07:00:07;102375.06;;;26.18;25.46
22830;BME280;11581;51.250;6.778;2023-05-03T07:02:33;102416.50;;;26.34;24.62
22830;BME280;11581;51.250;6.778;2023-05-03T07:05:01;102406.19;;;26.23;24.46
22830;BME280;11581;51.250;6.778;2023-05-03T07:07:27;102399.66;;;26.11;24.76
22830;BME280;11581;51.250;6.778;2023-05-03T07:09:54;102419.25;;;26.08;24.45
22830;BME280;11581;51.250;6.778;2023-05-03T07:12:20;102347.66;;;25.59;24.59
22830;BME280;11581;51.250;6.778;2023-05-03T07:14:52;102388.91;;;25.77;24.37
22830;BME280;11581;51.250;6.778;2023-05-03T07:17:18;102410.75;;;25.83;24.47
22830;BME280;11581;51.250;6.778;2023-05-03T07:19:45;102406.97;;;25.71;24.44
22830;BME280;11581;51.250;6.778;2023-05-03T07:22:13;102296.91;;;25.24;24.64
22830;BME280;11581;51.250;6.778;2023-05-03T07:24:39;102294.69;;;25.34;24.20
22830;BME280;11581;51.250;6.778;2023-05-03T07:27:06;102418.59;;;26.19;24.22
22830;BME280;11581;51.250;6.778;2023-05-03T07:29:33;102387.28;;;26.28;24.16
22830;BME280;11581;51.250;6.778;2023-05-03T07:32:00;102397.97;;;26.49;23.51
22830;BME280;11581;51.250;6.778;2023-05-03T07:34:28;102387.63;;;26.58;23.20
22830;BME280;11581;51.250;6.778;2023-05-03T07:36:54;102387.22;;;26.67;23.28
22830;BME280;11581;51.250;6.778;2023-05-03T07:39:21;102388.69;;;26.76;22.86
22830;BME280;11581;51.250;6.778;2023-05-03T07:41:47;102385.53;;;26.79;23.21
22830;BME280;11581;51.250;6.778;2023-05-03T07:44:14;102384.19;;;26.95;23.34
22830;BME280;11581;51.250;6.778;2023-05-03T07:46:40;102375.47;;;27.17;22.88
22830;BME280;11581;51.250;6.778;2023-05-03T07:49:06;102385.06;;;27.39;22.52
22830;BME280;11581;51.250;6.778;2023-05-03T07:51:37;102369.94;;;27.68;20.83
22830;BME280;11581;51.250;6.778;2023-05-03T07:54:04;102292.16;;;27.38;21.94
22830;BME280;11581;51.250;6.778;2023-05-03T07:56:31;102392.53;;;27.94;21.58
22830;BME280;11581;51.250;6.778;2023-05-03T07:58:57;102382.50;;;28.13;21.84
22830;BME280;11581;51.250;6.778;2023-05-03T08:01:24;102374.03;;;28.39;21.57
22830;BME280;11581;51.250;6.778;2023-05-03T08:03:52;102358.72;;;28.50;21.41
22830;BME280;11581;51.250;6.778;2023-05-03T08:06:18;102373.84;;;28.95;21.34
22830;BME280;11581;51.250;6.778;2023-05-03T08:08:45;102336.31;;;29.07;20.95
22830;BME280;11581;51.250;6.778;2023-05-03T08:11:11;102378.56;;;29.71;19.90
22830;BME280;11581;51.250;6.778;2023-05-03T08:13:38;102365.56;;;29.90;19.85
22830;BME280;11581;51.250;6.778;2023-05-03T08:16:05;102368.69;;;30.05;19.80
22830;BME280;11581;51.250;6.778;2023-05-03T08:18:32;102376.88;;;30.23;19.87
22830;BME280;11581;51.250;6.778;2023-05-03T08:20:58;102343.97;;;30.28;19.74
22830;BME280;11581;51.250;6.778;2023-05-03T08:23:25;102360.47;;;30.51;18.95
22830;BME280;11581;51.250;6.778;2023-05-03T08:25:51;102364.06;;;30.63;18.83
22830;BME280;11581;51.250;6.778;2023-05-03T08:28:18;102354.22;;;30.67;19.10
22830;BME280;11581;51.250;6.778;2023-05-03T08:30:45;102360.69;;;30.84;18.83
22830;BME280;11581;51.250;6.778;2023-05-03T08:33:11;102362.09;;;30.98;18.59
22830;BME280;11581;51.250;6.778;2023-05-03T08:35:38;102337.16;;;31.05;18.86
22830;BME280;11581;51.250;6.778;2023-05-03T08:38:04;102369.31;;;31.27;18.59
22830;BME280;11581;51.250;6.778;2023-05-03T08:40:31;102355.91;;;31.31;17.95
22830;BME280;11581;51.250;6.778;2023-05-03T08:43:07;102364.25;;;31.24;17.27
22830;BME280;11581;51.250;6.778;2023-05-03T08:45:34;102355.81;;;31.14;18.27
22830;BME280;11581;51.250;6.778;2023-05-03T08:48:01;102365.44;;;31.00;18.20
22830;BME280;11581;51.250;6.778;2023-05-03T08:50:29;102336.88;;;30.67;18.25
22830;BME280;11581;51.250;6.778;2023-05-03T08:52:56;102361.78;;;30.83;18.24
22830;BME280;11581;51.250;6.778;2023-05-03T08:55:22;102333.88;;;30.68;17.79
22830;BME280;11581;51.250;6.778;2023-05-03T08:57:49;102354.22;;;30.67;17.92
22830;BME280;11581;51.250;6.778;2023-05-03T09:00:16;102351.50;;;30.44;17.81
22830;BME280;11581;51.250;6.778;2023-05-03T09:02:43;102346.25;;;30.31;18.54
22830;BME280;11581;51.250;6.778;2023-05-03T09:07:59;102343.34;;;30.49;19.21
22830;BME280;11581;51.250;6.778;2023-05-03T09:10:26;102321.69;;;30.64;18.20
22830;BME280;11581;51.250;6.778;2023-05-03T09:12:57;102319.97;;;30.86;17.42
22830;BME280;11581;51.250;6.778;2023-05-03T09:15:24;102336.91;;;31.06;18.31
22830;BME280;11581;51.250;6.778;2023-05-03T09:18:13;102338.69;;;31.12;17.93
22830;BME280;11581;51.250;6.778;2023-05-03T09:20:42;102332.44;;;31.28;18.27
22830;BME280;11581;51.250;6.778;2023-05-03T09:23:15;102331.22;;;31.52;20.68
22830;BME280;11581;51.250;6.778;2023-05-03T09:25:44;102347.13;;;31.78;17.25
22830;BME280;11581;51.250;6.778;2023-05-03T09:28:14;102312.25;;;31.72;16.80
22830;BME280;11581;51.250;6.778;2023-05-03T09:30:42;102319.06;;;31.81;17.09
22830;BME280;11581;51.250;6.778;2023-05-03T09:33:09;102315.72;;;31.79;17.36
22830;BME280;11581;51.250;6.778;2023-05-03T09:36:00;102292.22;;;31.60;17.50
22830;BME280;11581;51.250;6.778;2023-05-03T09:38:32;102321.59;;;31.99;16.97
22830;BME280;11581;51.250;6.778;2023-05-03T09:40:59;102307.34;;;32.24;17.72
22830;BME280;11581;51.250;6.778;2023-05-03T09:43:26;102322.31;;;32.66;17.57
22830;BME280;11581;51.250;6.778;2023-05-03T09:46:07;102329.53;;;33.10;17.03
22830;BME280;11581;51.250;6.778;2023-05-03T09:48:34;102280.06;;;33.14;16.55
22830;BME280;11581;51.250;6.778;2023-05-03T09:51:02;102323.91;;;33.53;15.61
22830;BME280;11581;51.250;6.778;2023-05-03T09:53:31;102328.22;;;33.39;15.41
22830;BME280;11581;51.250;6.778;2023-05-03T09:55:58;102303.19;;;33.03;15.56
22830;BME280;11581;51.250;6.778;2023-05-03T09:58:28;102318.00;;;32.75;15.96
22830;BME280;11581;51.250;6.778;2023-05-03T10:00:55;102305.22;;;32.48;16.00
22830;BME280;11581;51.250;6.778;2023-05-03T10:03:43;102268.06;;;32.00;17.02
22830;BME280;11581;51.250;6.778;2023-05-03T10:06:39;102295.31;;;31.97;16.42
22830;BME280;11581;51.250;6.778;2023-05-03T10:11:35;102283.06;;;31.43;16.65
22830;BME280;11581;51.250;6.778;2023-05-03T10:14:03;102215.13;;;30.76;16.89
22830;BME280;11581;51.250;6.778;2023-05-03T10:16:37;102295.25;;;31.31;16.57
22830;BME280;11581;51.250;6.778;2023-05-03T10:19:19;102297.59;;;31.39;17.35
22830;BME280;11581;51.250;6.778;2023-05-03T10:22:06;102238.50;;;31.18;16.67
22830;BME280;11581;51.250;6.778;2023-05-03T10:24:37;102274.72;;;31.38;16.86
22830;BME280;11581;51.250;6.778;2023-05-03T10:27:24;102212.81;;;31.01;17.52
22830;BME280;11581;51.250;6.778;2023-05-03T10:29:52;102271.38;;;31.36;17.48
22830;BME280;11581;51.250;6.778;2023-05-03T10:32:28;102271.91;;;31.50;17.56
22830;BME280;11581;51.250;6.778;2023-05-03T10:34:59;102277.50;;;31.71;16.83
22830;BME280;11581;51.250;6.778;2023-05-03T10:37:26;102276.59;;;31.82;16.64
22830;BME280;11581;51.250;6.778;2023-05-03T10:39:53;102275.28;;;31.85;16.33
22830;BME280;11581;51.250;6.778;2023-05-03T10:42:22;102242.16;;;31.52;16.55
22830;BME280;11581;51.250;6.778;2023-05-03T10:44:53;102287.69;;;31.54;16.24
22830;BME280;11581;51.250;6.778;2023-05-03T10:47:23;102274.66;;;31.22;16.66
22830;BME280;11581;51.250;6.778;2023-05-03T10:55:16;102277.16;;;31.07;17.29
22830;BME280;11581;51.250;6.778;2023-05-03T10:57:45;102267.81;;;31.24;17.17
22830;BME280;11581;51.250;6.778;2023-05-03T11:05:35;102259.03;;;31.88;16.65
22830;BME280;11581;51.250;6.778;2023-05-03T11:08:16;102215.91;;;31.82;16.42
22830;BME280;11581;51.250;6.778;2023-05-03T11:10:44;102256.00;;;32.23;16.31
22830;BME280;11581;51.250;6.778;2023-05-03T11:13:11;102236.84;;;32.17;16.30
22830;BME280;11581;51.250;6.778;2023-05-03T11:15:38;102249.88;;;32.21;16.54
22830;BME280;11581;51.250;6.778;2023-05-03T11:18:06;102207.34;;;32.00;16.20
22830;BME280;11581;51.250;6.778;2023-05-03T11:20:33;102221.88;;;32.13;16.21
22830;BME280;11581;51.250;6.778;2023-05-03T11:23:00;102234.66;;;32.19;16.26
22830;BME280;11581;51.250;6.778;2023-05-03T11:25:28;102228.88;;;32.20;16.15
22830;BME280;11581;51.250;6.778;2023-05-03T11:27:55;102224.28;;;32.26;16.29
22830;BME280;11581;51.250;6.778;2023-05-03T11:30:21;102228.44;;;32.28;16.03
22830;BME280;11581;51.250;6.778;2023-05-03T11:32:48;102212.97;;;32.27;15.99
22830;BME280;11581;51.250;6.778;2023-05-03T11:35:15;102172.50;;;31.94;16.17
22830;BME280;11581;51.250;6.778;2023-05-03T11:37:42;102170.69;;;31.83;15.47
22830;BME280;11581;51.250;6.778;2023-05-03T11:40:15;102214.34;;;31.86;15.46
22830;BME280;11581;51.250;6.778;2023-05-03T11:42:52;102222.75;;;31.47;16.40
22830;BME280;11581;51.250;6.778;2023-05-03T11:45:20;102224.63;;;31.13;15.74
22830;BME280;11581;51.250;6.778;2023-05-03T11:47:47;102221.31;;;30.83;16.44
22830;BME280;11581;51.250;6.778;2023-05-03T11:50:14;102164.22;;;30.39;16.64
22830;BME280;11581;51.250;6.778;2023-05-03T11:52:40;102213.59;;;30.57;16.95
22830;BME280;11581;51.250;6.778;2023-05-03T11:55:07;102210.84;;;30.57;16.86
22830;BME280;11581;51.250;6.778;2023-05-03T11:57:35;102199.84;;;30.57;17.25
22830;BME280;11581;51.250;6.778;2023-05-03T12:00:12;102216.56;;;30.67;16.63
22830;BME280;11581;51.250;6.778;2023-05-03T12:02:43;102209.69;;;30.81;17.04
22830;BME280;11581;51.250;6.778;2023-05-03T12:05:10;102199.28;;;30.83;16.75
22830;BME280;11581;51.250;6.778;2023-05-03T12:07:37;102210.88;;;30.85;16.63
22830;BME280;11581;51.250;6.778;2023-05-03T12:10:16;102213.59;;;30.57;16.19
22830;BME280;11581;51.250;6.778;2023-05-03T12:12:57;102211.53;;;30.25;16.70
22830;BME280;11581;51.250;6.778;2023-05-03T12:15:33;102211.66;;;29.95;17.11
22830;BME280;11581;51.250;6.778;2023-05-03T12:18:02;102207.25;;;29.71;17.34
22830;BME280;11581;51.250;6.778;2023-05-03T12:20:29;102204.94;;;29.56;17.47
22830;BME280;11581;51.250;6.778;2023-05-03T12:23:00;102185.91;;;29.43;17.40
22830;BME280;11581;51.250;6.778;2023-05-03T12:25:28;102186.75;;;29.32;18.36
22830;BME280;11581;51.250;6.778;2023-05-03T12:27:57;102173.72;;;29.16;18.48
22830;BME280;11581;51.250;6.778;2023-05-03T12:30:24;102163.44;;;29.12;18.58
22830;BME280;11581;51.250;6.778;2023-05-03T12:32:51;102183.63;;;29.29;18.12
22830;BME280;11581;51.250;6.778;2023-05-03T12:35:19;102184.81;;;29.33;18.42
22830;BME280;11581;51.250;6.778;2023-05-03T12:37:47;102177.44;;;29.33;18.29
22830;BME280;11581;51.250;6.778;2023-05-03T12:40:14;102172.88;;;29.39;18.15
22830;BME280;11581;51.250;6.778;2023-05-03T12:42:42;102151.84;;;29.33;18.01
22830;BME280;11581;51.250;6.778;2023-05-03T12:45:10;102171.47;;;29.48;18.12
22830;BME280;11581;51.250;6.778;2023-05-03T12:47:37;102117.44;;;29.19;18.04
22830;BME280;11581;51.250;6.778;2023-05-03T12:50:04;102125.56;;;29.14;18.52
22830;BME280;11581;51.250;6.778;2023-05-03T12:52:30;102158.28;;;29.27;18.29
22830;BME280;11581;51.250;6.778;2023-05-03T12:54:57;102128.47;;;29.01;18.30
22830;BME280;11581;51.250;6.778;2023-05-03T12:57:24;102055.38;;;28.65;18.41
22830;BME280;11581;51.250;6.778;2023-05-03T12:59:51;102145.88;;;29.13;18.74
22830;BME280;11581;51.250;6.778;2023-05-03T13:02:21;102143.91;;;29.02;18.43
22830;BME280;11581;51.250;6.778;2023-05-03T13:04:48;102104.66;;;28.72;18.49
22830;BME280;11581;51.250;6.778;2023-05-03T13:07:28;102144.53;;;28.74;18.71
22830;BME280;11581;51.250;6.778;2023-05-03T13:09:56;102146.03;;;28.59;18.73
22830;BME280;11581;51.250;6.778;2023-05-03T13:12:23;102120.75;;;28.21;18.95
22830;BME280;11581;51.250;6.778;2023-05-03T13:14:52;102065.97;;;27.66;19.10
22830;BME280;11581;51.250;6.778;2023-05-03T13:17:19;102117.09;;;27.72;19.21
22830;BME280;11581;51.250;6.778;2023-05-03T13:19:47;102123.06;;;27.69;19.24
22830;BME280;11581;51.250;6.778;2023-05-03T13:22:14;102122.56;;;27.54;19.66